Time;durP1;ratioP1;P1;durP2;ratioP2;P2;SDS_P1;SDS_P2;PMS_P1;PMS_P2;Temp;Humidity;BMP_temperature;BMP_pressure;BME280_temperature;BME280_humidity;BME280_pressure;Samples;Min_cycle;Max_cycle;Signal;HPM_P1;HPM_P2
2022/07/10 00:01:51;;;;;;;1999.90;999.90;;;16.10;94.20;;;;;;5070793;28;20460;-80
2022/07/10 00:04:16;;;;;;;1999.90;999.90;;;16.10;95.10;;;;;;5069921;28;20535;-81
2022/07/10 00:06:46;;;;;;;1999.90;999.90;;;15.90;94.80;;;;;;5072406;28;20380;-81
2022/07/10 00:09:15;;;;;;;1999.90;999.90;;;16.00;95.00;;;;;;5059383;28;20812;-80
2022/07/10 00:11:44;;;;;;;1999.90;999.90;;;15.90;95.00;;;;;;5083008;28;20040;-80
2022/07/10 00:14:09;;;;;;;1999.90;999.90;;;15.90;95.50;;;;;;5096204;28;20105;-81
2022/07/10 00:16:36;;;;;;;1999.90;999.90;;;15.90;95.40;;;;;;5101958;28;20621;-80
2022/07/10 00:19:01;;;;;;;1999.90;999.90;;;15.90;95.70;;;;;;5078565;28;20490;-80
2022/07/10 00:21:27;;;;;;;1999.90;999.90;;;15.90;95.50;;;;;;5097306;28;20044;-80
2022/07/10 00:23:53;;;;;;;1999.90;999.90;;;15.90;95.40;;;;;;5077621;28;20089;-80
2022/07/10 00:26:18;;;;;;;1999.90;999.90;;;15.90;95.40;;;;;;5098500;28;20147;-81
2022/07/10 00:28:44;;;;;;;1999.90;999.90;;;15.90;95.30;;;;;;5073521;28;20396;-80
2022/07/10 00:31:10;;;;;;;1999.90;999.90;;;15.90;95.10;;;;;;5076493;28;20031;-81
2022/07/10 00:33:37;;;;;;;1999.90;999.90;;;15.70;95.20;;;;;;5094909;28;20032;-80
2022/07/10 00:36:05;;;;;;;1999.90;999.90;;;15.70;95.20;;;;;;5073011;28;20028;-80
2022/07/10 00:38:31;;;;;;;1999.90;999.90;;;15.70;95.40;;;;;;5069974;28;20338;-81
2022/07/10 00:40:56;;;;;;;1999.90;999.90;;;15.50;95.90;;;;;;5083620;28;20469;-80
2022/07/10 00:43:22;;;;;;;1999.90;999.90;;;15.50;96.50;;;;;;5101952;28;20073;-80
2022/07/10 00:45:49;;;;;;;1999.90;999.90;;;15.50;95.90;;;;;;5081899;28;20024;-80
2022/07/10 00:48:15;;;;;;;1999.90;999.90;;;15.50;96.00;;;;;;5079941;28;20033;-80
2022/07/10 00:50:42;;;;;;;1999.90;999.90;;;15.30;96.70;;;;;;5059810;28;20553;-79
2022/07/10 00:53:08;;;;;;;1999.90;999.90;;;15.30;97.10;;;;;;5096218;28;20031;-80
2022/07/10 00:55:36;;;;;;;1999.90;999.90;;;15.30;97.20;;;;;;5073973;28;20532;-80
2022/07/10 00:58:02;;;;;;;1999.90;999.90;;;15.20;98.00;;;;;;5095130;28;20042;-80
2022/07/10 01:00:28;;;;;;;1999.90;999.90;;;15.20;97.70;;;;;;5091266;28;20037;-80
2022/07/10 01:02:54;;;;;;;1999.90;999.90;;;15.20;98.10;;;;;;5074127;28;20028;-79
2022/07/10 01:05:20;;;;;;;1999.90;999.90;;;15.20;98.30;;;;;;5068770;28;20039;-79
2022/07/10 01:07:45;;;;;;;1999.90;999.90;;;15.20;98.70;;;;;;5088772;28;20027;-79
2022/07/10 01:10:11;;;;;;;1999.90;999.90;;;15.20;98.80;;;;;;5101908;28;20031;-79
2022/07/10 01:12:37;;;;;;;1999.90;999.90;;;15.20;99.10;;;;;;5102781;28;20157;-79
2022/07/10 01:15:04;;;;;;;1999.90;999.90;;;15.10;99.70;;;;;;5101267;28;20043;-80
2022/07/10 01:17:30;;;;;;;1999.90;999.90;;;15.10;99.70;;;;;;5099040;28;20137;-80
2022/07/10 01:19:56;;;;;;;1999.90;999.90;;;15.20;98.80;;;;;;5082088;28;20426;-79
2022/07/10 01:22:21;;;;;;;1999.90;999.90;;;15.20;98.70;;;;;;5076659;28;20032;-79
2022/07/10 01:24:47;;;;;;;1999.90;999.90;;;15.30;98.90;;;;;;5076497;28;20032;-80
2022/07/10 01:27:12;;;;;;;1999.90;999.90;;;15.20;98.60;;;;;;5075559;28;20831;-79
2022/07/10 01:29:39;;;;;;;1999.90;999.90;;;15.30;99.00;;;;;;5059282;28;20491;-79
2022/07/10 01:32:05;;;;;;;1999.90;999.90;;;15.20;99.20;;;;;;5057315;28;20515;-80
2022/07/10 01:34:31;;;;;;;1999.90;999.90;;;15.20;99.70;;;;;;5069785;28;20040;-80
2022/07/10 01:36:56;;;;;;;1999.90;999.90;;;15.10;99.70;;;;;;5070112;28;20112;-80
2022/07/10 01:39:22;;;;;;;1999.90;999.90;;;14.90;99.90;;;;;;5095298;28;20503;-80
2022/07/10 01:41:47;;;;;;;1999.90;999.90;;;14.90;99.90;;;;;;5085542;28;20596;-80
2022/07/10 01:44:13;;;;;;;1999.90;999.90;;;14.90;99.90;;;;;;5076945;28;20060;-79
2022/07/10 01:46:46;;;;;;;1999.90;999.90;;;14.90;99.90;;;;;;5083369;28;20139;-82
2022/07/10 01:49:12;;;;;;;1999.90;999.90;;;15.00;99.90;;;;;;5062675;28;20028;-80
2022/07/10 01:51:38;;;;;;;1999.90;999.90;;;14.90;99.90;;;;;;5079541;28;20416;-80
2022/07/10 01:54:04;;;;;;;1999.90;999.90;;;15.00;99.90;;;;;;5060858;28;20024;-79
2022/07/10 01:56:29;;;;;;;1999.90;999.90;;;14.90;99.90;;;;;;5095603;28;20414;-79
2022/07/10 01:58:55;;;;;;;1999.90;999.90;;;15.00;99.90;;;;;;5073352;28;20032;-80
2022/07/10 02:01:21;;;;;;;1999.90;999.90;;;14.90;99.90;;;;;;5074124;28;20043;-79
2022/07/10 02:06:30;;;;;;;1999.90;999.90;;;14.90;99.90;;;;;;5075872;28;20047;-80
2022/07/10 02:08:56;;;;;;;1999.90;999.90;;;15.00;99.90;;;;;;5092102;28;20134;-80
2022/07/10 02:11:21;;;;;;;1999.90;999.90;;;14.90;99.90;;;;;;5069687;28;20045;-80
2022/07/10 02:13:47;;;;;;;1999.90;999.90;;;14.90;99.90;;;;;;5080395;28;20200;-80
2022/07/10 02:16:13;;;;;;;1999.90;999.90;;;15.00;99.90;;;;;;5047051;28;20031;-80
2022/07/10 02:18:39;;;;;;;1999.90;999.90;;;15.00;99.90;;;;;;5096584;28;20043;-81
2022/07/10 02:21:05;;;;;;;1999.90;999.90;;;15.10;99.90;;;;;;5097129;28;20078;-80
2022/07/10 02:23:30;;;;;;;1999.90;999.90;;;15.10;99.90;;;;;;5095052;28;20043;-79
2022/07/10 02:25:56;;;;;;;1999.90;999.90;;;14.90;99.90;;;;;;5076938;28;20036;-79
2022/07/10 02:28:22;;;;;;;1999.90;999.90;;;14.90;99.90;;;;;;5094125;28;20028;-79
2022/07/10 02:30:47;;;;;;;1999.90;999.90;;;14.90;99.90;;;;;;5072659;28;20047;-80
2022/07/10 02:33:13;;;;;;;1999.90;999.90;;;14.90;99.90;;;;;;5058973;28;20035;-76
2022/07/10 02:35:39;;;;;;;1999.90;999.90;;;14.90;99.90;;;;;;5091990;28;20047;-79
2022/07/10 02:38:04;;;;;;;1999.90;999.90;;;14.90;99.90;;;;;;5076505;28;20040;-80
2022/07/10 02:40:30;;;;;;;1999.90;999.90;;;14.70;99.90;;;;;;5103574;28;20043;-79
2022/07/10 02:42:55;;;;;;;1999.90;999.90;;;14.60;99.90;;;;;;5100079;28;20483;-83
2022/07/10 02:45:21;;;;;;;1999.90;999.90;;;14.50;99.90;;;;;;5101132;28;20655;-80
2022/07/10 02:47:47;;;;;;;1999.90;999.90;;;14.40;99.90;;;;;;5085380;28;20576;-80
2022/07/10 02:50:12;;;;;;;1999.90;999.90;;;14.40;99.90;;;;;;5063645;28;20031;-79
2022/07/10 02:52:38;;;;;;;1999.90;999.90;;;14.10;99.90;;;;;;5094677;28;20028;-79
2022/07/10 02:55:04;;;;;;;1999.90;999.90;;;14.10;99.90;;;;;;5100195;28;20401;-79
2022/07/10 02:57:29;;;;;;;1999.90;999.90;;;14.10;99.90;;;;;;5095793;28;20036;-80
2022/07/10 02:59:55;;;;;;;1999.90;999.90;;;14.00;99.90;;;;;;5095396;28;20028;-80
2022/07/10 03:02:21;;;;;;;1999.90;999.90;;;14.10;99.90;;;;;;5075259;28;20077;-79
2022/07/10 03:04:46;;;;;;;1999.90;999.90;;;14.00;99.90;;;;;;5078486;28;20403;-80
2022/07/10 03:07:12;;;;;;;1999.90;999.90;;;13.90;99.90;;;;;;5056782;28;20135;-80
2022/07/10 03:09:38;;;;;;;1999.90;999.90;;;13.80;99.90;;;;;;5080810;28;20035;-80
2022/07/10 03:12:04;;;;;;;1999.90;999.90;;;13.70;99.90;;;;;;5087190;28;20028;-80
2022/07/10 03:14:29;;;;;;;1999.90;999.90;;;13.60;99.90;;;;;;5065115;28;20418;-79
2022/07/10 03:16:55;;;;;;;1999.90;999.90;;;13.50;99.90;;;;;;5086381;28;20110;-79
2022/07/10 03:19:20;;;;;;;1999.90;999.90;;;13.60;99.90;;;;;;5099968;28;20515;-80
2022/07/10 03:21:46;;;;;;;1999.90;999.90;;;13.60;99.90;;;;;;5076901;28;20031;-80
2022/07/10 03:24:12;;;;;;;1999.90;999.90;;;13.60;99.90;;;;;;5100514;28;20114;-80
2022/07/10 03:26:37;;;;;;;1999.90;999.90;;;13.70;99.90;;;;;;5080922;28;20543;-79
2022/07/10 03:29:03;;;;;;;1999.90;999.90;;;13.70;99.90;;;;;;5097231;28;20390;-79
2022/07/10 03:31:29;;;;;;;1999.90;999.90;;;13.80;99.90;;;;;;5071810;28;20040;-80
2022/07/10 03:33:54;;;;;;;1999.90;999.90;;;13.90;99.90;;;;;;5078025;28;20055;-79
2022/07/10 03:36:20;;;;;;;1999.90;999.90;;;13.90;99.90;;;;;;5076246;28;20084;-79
2022/07/10 03:38:46;;;;;;;1999.90;999.90;;;13.90;99.90;;;;;;5097875;28;20028;-79
2022/07/10 03:41:13;;;;;;;1999.90;999.90;;;13.90;99.90;;;;;;5104243;28;20028;-79
2022/07/10 03:43:38;;;;;;;1999.90;999.90;;;13.90;99.90;;;;;;5061508;28;20032;-80
2022/07/10 03:46:04;;;;;;;1999.90;999.90;;;13.80;99.90;;;;;;5103731;28;20457;-79
2022/07/10 03:48:30;;;;;;;1999.90;999.90;;;13.80;99.90;;;;;;5099931;28;20032;-79
2022/07/10 03:50:55;;;;;;;1999.90;999.90;;;13.70;99.90;;;;;;5082742;28;20055;-81
2022/07/10 03:53:21;;;;;;;1999.90;999.90;;;13.60;99.90;;;;;;5073731;28;20402;-79
2022/07/10 03:55:47;;;;;;;1999.90;999.90;;;13.60;99.90;;;;;;5097218;28;20042;-80
2022/07/10 03:58:12;;;;;;;1999.90;999.90;;;13.60;99.90;;;;;;5094371;28;20448;-80
2022/07/10 04:00:40;;;;;;;1999.90;999.90;;;13.60;99.90;;;;;;5093361;28;20119;-80
2022/07/10 04:03:07;;;;;;;1999.90;999.90;;;13.60;99.90;;;;;;5074678;28;20031;-79
2022/07/10 04:05:33;;;;;;;1999.90;999.90;;;13.70;99.90;;;;;;5092550;28;20040;-81
2022/07/10 04:08:00;;;;;;;1999.90;999.90;;;13.80;99.90;;;;;;5088187;28;20027;-79
2022/07/10 04:10:27;;;;;;;1999.90;999.90;;;13.80;99.90;;;;;;5098505;28;20044;-80
2022/07/10 04:12:53;;;;;;;1999.90;999.90;;;13.80;99.90;;;;;;5105507;28;20043;-79
2022/07/10 04:15:19;;;;;;;1999.90;999.90;;;13.80;99.90;;;;;;5098190;28;20049;-84
2022/07/10 04:17:45;;;;;;;1999.90;999.90;;;13.80;99.90;;;;;;5078184;28;20051;-80
2022/07/10 04:20:13;;;;;;;1999.90;999.90;;;13.90;99.90;;;;;;5099155;28;20127;-79
2022/07/10 04:22:39;;;;;;;1999.90;999.90;;;13.90;99.90;;;;;;5098013;28;20487;-80
2022/07/10 04:25:05;;;;;;;1999.90;999.90;;;14.00;99.90;;;;;;5098001;28;20085;-79
2022/07/10 04:27:31;;;;;;;1999.90;999.90;;;14.00;99.90;;;;;;5074861;28;20495;-79
2022/07/10 04:29:57;;;;;;;1999.90;999.90;;;14.00;99.90;;;;;;5091048;28;20028;-79
2022/07/10 04:32:23;;;;;;;1999.90;999.90;;;14.10;99.90;;;;;;5073323;28;20025;-79
2022/07/10 04:34:48;;;;;;;1999.90;999.90;;;14.10;99.90;;;;;;5093401;28;20061;-79
2022/07/10 04:37:14;;;;;;;1999.90;999.90;;;14.20;99.90;;;;;;5073128;28;20028;-79
2022/07/10 04:39:40;;;;;;;1999.90;999.90;;;14.20;99.90;;;;;;5082586;28;20071;-80
2022/07/10 04:42:07;;;;;;;1999.90;999.90;;;14.30;99.90;;;;;;5080209;28;20184;-82
2022/07/10 04:44:34;;;;;;;1999.90;999.90;;;14.40;99.90;;;;;;5104179;28;20488;-81
2022/07/10 04:47:00;;;;;;;1999.90;999.90;;;14.40;99.90;;;;;;5102298;28;20172;-81
2022/07/10 04:49:26;;;;;;;1999.90;999.90;;;14.50;99.90;;;;;;5094836;28;20028;-81
2022/07/10 04:51:52;;;;;;;1999.90;999.90;;;14.40;99.90;;;;;;5073614;28;20130;-80
2022/07/10 04:54:18;;;;;;;1999.90;999.90;;;14.50;99.90;;;;;;5089402;28;20042;-81
2022/07/10 04:56:44;;;;;;;1999.90;999.90;;;14.50;99.90;;;;;;5096664;28;20099;-84
2022/07/10 04:59:10;;;;;;;1999.90;999.90;;;14.60;99.90;;;;;;5093858;28;20039;-81
2022/07/10 05:01:37;;;;;;;1999.90;999.90;;;14.70;99.90;;;;;;5061334;28;20035;-81
2022/07/10 05:04:03;;;;;;;1999.90;999.90;;;14.70;99.90;;;;;;5075126;28;20024;-80
2022/07/10 05:06:29;;;;;;;1999.90;999.90;;;14.70;99.90;;;;;;5089698;28;20082;-80
2022/07/10 05:08:55;;;;;;;1999.90;999.90;;;14.70;99.90;;;;;;5069449;28;20495;-81
2022/07/10 05:11:21;;;;;;;1999.90;999.90;;;14.80;99.90;;;;;;5087672;28;20094;-82
2022/07/10 05:13:48;;;;;;;1999.90;999.90;;;14.80;99.90;;;;;;5081558;28;20044;-86
2022/07/10 05:16:15;;;;;;;1999.90;999.90;;;14.80;99.90;;;;;;5101079;28;20043;-81
2022/07/10 05:18:40;;;;;;;1999.90;999.90;;;14.80;99.90;;;;;;5069136;28;20055;-81
2022/07/10 05:21:06;;;;;;;1999.90;999.90;;;15.00;99.90;;;;;;5077262;28;20048;-81
2022/07/10 05:23:32;;;;;;;1999.90;999.90;;;15.10;99.90;;;;;;5093290;28;20141;-80
2022/07/10 05:25:58;;;;;;;1999.90;999.90;;;15.10;99.90;;;;;;5074206;28;20550;-81
2022/07/10 05:28:23;;;;;;;1999.90;999.90;;;15.20;99.90;;;;;;5093547;28;20028;-81
2022/07/10 05:30:49;;;;;;;1999.90;999.90;;;15.30;99.90;;;;;;5092473;28;20036;-80
2022/07/10 05:33:15;;;;;;;1999.90;999.90;;;15.40;99.90;;;;;;5073132;28;20032;-80
2022/07/10 05:35:41;;;;;;;1999.90;999.90;;;15.60;99.90;;;;;;5091883;28;20119;-81
2022/07/10 05:38:07;;;;;;;1999.90;999.90;;;15.50;99.70;;;;;;5077735;28;20574;-81
2022/07/10 05:40:33;;;;;;;1999.90;999.90;;;15.50;98.80;;;;;;5086115;28;20134;-81
2022/07/10 05:42:58;;;;;;;1999.90;999.90;;;15.30;99.90;;;;;;5082600;28;20415;-80
2022/07/10 05:45:24;;;;;;;1999.90;999.90;;;15.30;99.90;;;;;;5088923;28;20043;-80
2022/07/10 05:47:50;;;;;;;1999.90;999.90;;;15.50;99.90;;;;;;5075609;28;20066;-82
2022/07/10 05:50:16;;;;;;;1999.90;999.90;;;15.70;98.60;;;;;;5089525;28;20738;-80
2022/07/10 05:52:42;;;;;;;1999.90;999.90;;;15.70;97.70;;;;;;5077950;28;20035;-80
2022/07/10 05:55:08;;;;;;;1999.90;999.90;;;15.70;98.20;;;;;;5094154;28;20032;-80
2022/07/10 05:57:34;;;;;;;1999.90;999.90;;;15.70;97.60;;;;;;5070584;28;20181;-81
2022/07/10 06:00:00;;;;;;;1999.90;999.90;;;15.80;97.40;;;;;;5074020;28;20126;-81
2022/07/10 06:02:26;;;;;;;1999.90;999.90;;;15.90;97.30;;;;;;5090827;28;20523;-80
2022/07/10 06:04:52;;;;;;;1999.90;999.90;;;15.90;97.20;;;;;;5090277;28;20047;-81
2022/07/10 06:07:18;;;;;;;1999.90;999.90;;;15.70;98.20;;;;;;5091409;28;20032;-81
2022/07/10 06:09:43;;;;;;;1999.90;999.90;;;15.90;97.30;;;;;;5102421;28;20031;-81
2022/07/10 06:12:09;;;;;;;1999.90;999.90;;;15.90;97.20;;;;;;5098971;28;20024;-81
2022/07/10 06:14:35;;;;;;;1999.90;999.90;;;16.00;97.20;;;;;;5101289;28;20395;-81
2022/07/10 06:17:01;;;;;;;1999.90;999.90;;;16.10;95.80;;;;;;5098591;28;20069;-81
2022/07/10 06:19:27;;;;;;;1999.90;999.90;;;16.20;95.20;;;;;;5095291;28;20300;-81
2022/07/10 06:22:30;;;;;;;1999.90;999.90;;;16.10;95.70;;;;;;5094582;28;20390;-82
2022/07/10 06:24:38;;;;;;;1999.90;999.90;;;16.40;95.10;;;;;;5095248;28;20040;-81
2022/07/10 06:27:04;;;;;;;1999.90;999.90;;;16.40;94.60;;;;;;5076373;28;20383;-79
2022/07/10 06:29:30;;;;;;;1999.90;999.90;;;16.80;93.20;;;;;;5074801;28;20035;-81
2022/07/10 06:31:56;;;;;;;1999.90;999.90;;;17.00;92.50;;;;;;5092309;28;20036;-81
2022/07/10 06:34:21;;;;;;;965.38;497.33;;;16.90;93.20;;;;;;5088132;28;20093;-82
2022/07/10 06:36:47;;;;;;;1999.90;999.90;;;16.80;92.40;;;;;;5071782;28;20039;-81
2022/07/10 06:39:12;;;;;;;1999.90;999.90;;;16.60;93.10;;;;;;5084603;28;20115;-81
2022/07/10 06:41:38;;;;;;;1999.90;999.90;;;16.80;92.90;;;;;;5096736;28;20027;-81
2022/07/10 06:44:04;;;;;;;1999.90;999.90;;;16.90;92.90;;;;;;5087108;28;20051;-82
2022/07/10 06:46:31;;;;;;;1999.90;999.90;;;17.20;93.40;;;;;;5080268;28;20084;-81
2022/07/10 06:48:58;;;;;;;1999.90;999.90;;;18.00;90.50;;;;;;5094492;28;20165;-81
2022/07/10 06:51:24;;;;;;;1401.15;804.75;;;18.00;89.30;;;;;;5059068;28;20052;-81
2022/07/10 06:53:50;;;;;;;1999.90;999.90;;;17.90;88.00;;;;;;5075068;28;20540;-81
2022/07/10 06:56:16;;;;;;;1999.90;999.90;;;17.80;89.40;;;;;;5074765;28;20034;-82
2022/07/10 06:58:42;;;;;;;1999.90;999.90;;;18.10;87.80;;;;;;5092924;28;20020;-81
2022/07/10 07:01:07;;;;;;;1999.90;999.90;;;18.00;87.00;;;;;;5072993;28;20032;-81
2022/07/10 07:03:33;;;;;;;1999.90;999.90;;;18.00;87.80;;;;;;5054949;28;20448;-81
2022/07/10 07:05:59;;;;;;;1999.90;999.90;;;17.90;85.10;;;;;;5083717;28;20511;-81
2022/07/10 07:08:24;;;;;;;1761.65;798.88;;;17.70;85.80;;;;;;5080381;28;20061;-81
2022/07/10 07:10:50;;;;;;;1506.60;815.45;;;17.60;81.30;;;;;;5077399;28;20475;-81
2022/07/10 07:13:16;;;;;;;1999.90;999.90;;;17.30;81.30;;;;;;5095615;28;20115;-81
2022/07/10 07:15:46;;;;;;;1065.05;376.23;;;17.90;79.20;;;;;;5099698;28;20107;-80
2022/07/10 07:18:15;;;;;;;1448.82;637.95;;;18.00;79.10;;;;;;5095687;28;20031;-82
2022/07/10 07:23:25;;;;;;;1999.90;999.90;;;17.90;78.50;;;;;;5089074;28;20054;-81
2022/07/10 07:25:51;;;;;;;1999.90;999.90;;;18.40;75.80;;;;;;5037570;28;20040;-82
2022/07/10 07:28:21;;;;;;;1999.90;999.90;;;18.70;76.30;;;;;;5040902;28;20157;-81
2022/07/10 07:30:48;;;;;;;1999.90;999.90;;;18.60;76.30;;;;;;5072244;28;20055;-81
2022/07/10 07:33:13;;;;;;;1999.90;999.90;;;18.80;77.40;;;;;;5074900;28;20031;-81
2022/07/10 07:35:39;;;;;;;1619.25;783.35;;;19.10;75.40;;;;;;5072947;28;20088;-81
2022/07/10 07:38:08;;;;;;;1999.90;999.90;;;19.00;73.00;;;;;;5099672;28;20031;-82
2022/07/10 07:40:34;;;;;;;1999.90;999.90;;;18.70;74.20;;;;;;5085374;28;20250;-81
2022/07/10 07:43:00;;;;;;;1999.90;999.90;;;18.50;67.80;;;;;;5084717;28;20034;-81
2022/07/10 07:45:26;;;;;;;1791.88;896.15;;;17.80;72.70;;;;;;5083181;28;20035;-81
2022/07/10 07:47:53;;;;;;;1779.13;724.28;;;17.30;75.80;;;;;;5094509;28;20030;-81
2022/07/10 07:50:25;;;;;;;1999.90;999.90;;;17.30;76.50;;;;;;5083924;28;20114;-82
2022/07/10 07:52:51;;;;;;;1999.90;999.90;;;17.90;75.80;;;;;;5076813;28;20020;-81
2022/07/10 07:55:19;;;;;;;1999.90;999.90;;;18.60;73.20;;;;;;5064361;28;20547;-81
2022/07/10 07:57:45;;;;;;;1309.97;612.28;;;19.20;67.10;;;;;;5094681;28;20047;-81
2022/07/10 08:00:12;;;;;;;1999.90;999.90;;;19.50;66.10;;;;;;5071721;28;20028;-80
2022/07/10 08:02:38;;;;;;;1241.55;611.30;;;18.70;68.10;;;;;;5086870;28;20643;-81
2022/07/10 08:05:04;;;;;;;1999.90;999.90;;;18.40;68.80;;;;;;5088794;28;20581;-80
2022/07/10 08:07:45;;;;;;;1999.90;999.90;;;18.20;68.10;;;;;;5099264;28;20032;-80
2022/07/10 08:10:14;;;;;;;1284.05;517.17;;;18.60;66.50;;;;;;5074733;28;20032;-81
2022/07/10 08:12:42;;;;;;;1075.82;641.05;;;18.50;62.60;;;;;;5101118;28;20040;-80
2022/07/10 08:15:11;;;;;;;1999.90;999.90;;;18.60;63.50;;;;;;5102590;28;20035;-81
2022/07/10 08:17:37;;;;;;;1763.23;890.60;;;19.00;67.10;;;;;;5100755;28;20036;-80
2022/07/10 08:20:05;;;;;;;1999.90;999.90;;;19.40;60.20;;;;;;5081163;28;20101;-81
2022/07/10 08:22:32;;;;;;;1999.90;999.90;;;19.70;60.40;;;;;;5098070;28;20040;-80
2022/07/10 08:24:58;;;;;;;1661.80;813.35;;;19.80;61.10;;;;;;5093476;28;20128;-81
2022/07/10 08:27:24;;;;;;;1581.30;736.55;;;19.20;60.00;;;;;;5075733;28;20498;-81
2022/07/10 08:29:50;;;;;;;1683.95;765.05;;;18.20;64.00;;;;;;5051496;28;20024;-81
2022/07/10 08:32:16;;;;;;;1811.75;891.92;;;17.90;65.90;;;;;;5093283;28;20111;-83
2022/07/10 08:34:41;;;;;;;1999.90;999.90;;;18.60;64.70;;;;;;5100349;28;20497;-80
2022/07/10 08:37:07;;;;;;;1999.90;999.90;;;19.20;62.50;;;;;;5096196;28;20032;-81
2022/07/10 08:39:33;;;;;;;1557.90;688.47;;;20.00;59.70;;;;;;5089298;28;20044;-88
2022/07/10 08:42:00;;;;;;;1483.10;928.88;;;20.10;54.40;;;;;;5102428;28;20028;-81
2022/07/10 08:44:27;;;;;;;1482.78;616.08;;;19.70;56.80;;;;;;5101124;28;20019;-80
2022/07/10 08:46:53;;;;;;;1999.90;999.90;;;19.40;56.10;;;;;;5098064;28;20082;-81
2022/07/10 08:49:26;;;;;;;1705.15;857.10;;;19.70;57.70;;;;;;5100035;28;20506;-80
2022/07/10 08:52:00;;;;;;;1999.90;999.90;;;19.60;56.80;;;;;;5097887;28;20503;-80
2022/07/10 08:54:30;;;;;;;1643.70;841.35;;;19.70;58.20;;;;;;5071484;28;20070;-81
2022/07/10 08:56:57;;;;;;;1999.90;999.90;;;19.70;55.10;;;;;;5077151;28;20526;-81
2022/07/10 08:59:23;;;;;;;1626.78;764.05;;;19.90;60.90;;;;;;5094301;28;20487;-81
2022/07/10 09:01:49;;;;;;;1044.32;538.88;;;19.70;54.70;;;;;;5075663;28;20069;-81
2022/07/10 09:04:22;;;;;;;1999.90;999.90;;;20.10;52.70;;;;;;5068168;28;20035;-81
2022/07/10 09:06:50;;;;;;;1999.90;999.90;;;20.50;51.60;;;;;;5057749;28;20029;-81
2022/07/10 09:09:16;;;;;;;1999.90;999.90;;;20.70;51.60;;;;;;5085797;28;20290;-81
2022/07/10 09:11:42;;;;;;;1999.90;999.90;;;20.50;51.80;;;;;;5092397;28;20525;-82
2022/07/10 09:14:11;;;;;;;1999.90;999.90;;;20.40;53.00;;;;;;5093977;28;20082;-81
2022/07/10 09:16:39;;;;;;;1999.90;999.90;;;20.10;53.30;;;;;;5081030;28;20033;-81
2022/07/10 09:19:20;;;;;;;1999.90;999.90;;;19.60;54.50;;;;;;5075396;28;20036;-81
2022/07/10 09:21:47;;;;;;;1599.90;772.45;;;19.80;53.60;;;;;;5096315;28;20058;-81
2022/07/10 09:24:13;;;;;;;1999.90;999.90;;;20.00;51.50;;;;;;5079704;28;20028;-81
2022/07/10 09:26:40;;;;;;;1727.53;856.33;;;20.50;51.00;;;;;;5088602;28;20052;-81
2022/07/10 09:29:11;;;;;;;1775.43;999.90;;;20.40;50.00;;;;;;5093010;28;20136;-81
2022/07/10 09:31:57;;;;;;;1999.90;999.90;;;20.50;48.30;;;;;;5091266;28;20032;-81
2022/07/10 09:34:40;;;;;;;1999.90;999.90;;;20.10;49.50;;;;;;5090399;28;20055;-81
2022/07/10 09:37:18;;;;;;;1999.90;999.90;;;20.60;51.00;;;;;;5083943;28;20063;-80
2022/07/10 09:39:51;;;;;;;1664.35;927.95;;;21.30;46.80;;;;;;5094192;28;20052;-81
2022/07/10 09:42:28;;;;;;;1670.05;830.33;;;20.70;48.80;;;;;;5099287;28;20438;-81
2022/07/10 09:45:12;;;;;;;1864.63;833.30;;;20.40;48.70;;;;;;5064788;28;20604;-81
2022/07/10 09:47:48;;;;;;;1676.05;837.00;;;19.80;50.60;;;;;;5078298;28;20036;-82
2022/07/10 09:50:29;;;;;;;1815.07;762.03;;;20.50;49.20;;;;;;5070451;28;20031;-81
2022/07/10 09:53:09;;;;;;;1588.40;999.90;;;21.20;47.60;;;;;;5089735;28;20023;-81
2022/07/10 09:55:36;;;;;;;1558.65;813.50;;;22.20;45.40;;;;;;5093553;28;20031;-81
2022/07/10 09:58:07;;;;;;;1720.35;849.70;;;20.60;48.80;;;;;;5070617;28;20100;-82
2022/07/10 10:00:40;;;;;;;1658.43;798.47;;;20.80;48.10;;;;;;5091286;28;20362;-81
2022/07/10 10:03:09;;;;;;;1999.90;999.90;;;20.90;48.30;;;;;;5067424;28;20505;-81
2022/07/10 10:05:44;;;;;;;1466.78;698.00;;;20.90;49.00;;;;;;5089142;28;20044;-82
2022/07/10 10:08:12;;;;;;;1684.90;859.30;;;21.50;47.30;;;;;;5102084;28;20047;-82
2022/07/10 10:10:44;;;;;;;1999.90;999.90;;;21.70;47.50;;;;;;5099815;28;20034;-81
2022/07/10 10:13:11;;;;;;;1911.05;956.95;;;21.60;46.50;;;;;;5077060;28;20041;-82
2022/07/10 10:15:38;;;;;;;1587.35;757.25;;;21.80;47.30;;;;;;5077520;28;20034;-81
2022/07/10 10:18:04;;;;;;;1145.38;563.28;;;21.00;48.00;;;;;;5075967;28;20036;-82
2022/07/10 10:20:38;;;;;;;1999.90;999.90;;;20.60;50.80;;;;;;5070940;28;20030;-82
2022/07/10 10:23:05;;;;;;;1632.78;771.53;;;21.10;46.00;;;;;;5077414;28;20078;-82
2022/07/10 10:25:33;;;;;;;1999.90;999.90;;;21.10;46.50;;;;;;5071535;28;20484;-82
2022/07/10 10:28:02;;;;;;;1999.90;999.90;;;21.30;47.00;;;;;;5071177;28;20037;-82
2022/07/10 10:30:28;;;;;;;1999.90;999.90;;;21.80;45.20;;;;;;5069549;28;20032;-82
2022/07/10 10:32:54;;;;;;;1999.90;999.90;;;22.10;43.00;;;;;;5067914;28;20024;-81
2022/07/10 10:35:43;;;;;;;1999.90;999.90;;;23.00;46.10;;;;;;5054085;28;20039;-82
2022/07/10 10:38:09;;;;;;;1999.90;999.90;;;21.30;45.00;;;;;;5077306;28;20028;-81
2022/07/10 10:40:36;;;;;;;1999.90;999.90;;;21.30;46.00;;;;;;5073622;28;20090;-81
2022/07/10 10:43:22;;;;;;;1999.90;999.90;;;20.80;46.50;;;;;;5075361;28;20048;-81
2022/07/10 10:45:49;;;;;;;1999.90;999.90;;;21.30;45.50;;;;;;5070948;28;20043;-81
2022/07/10 10:48:17;;;;;;;1999.90;999.90;;;22.10;42.10;;;;;;5073563;28;20025;-82
2022/07/10 10:50:49;;;;;;;1999.90;999.90;;;21.80;43.10;;;;;;5071236;28;20565;-81
2022/07/10 10:53:27;;;;;;;1748.18;863.25;;;20.70;45.70;;;;;;5072155;28;20035;-82
2022/07/10 10:56:02;;;;;;;658.88;226.50;;;20.60;47.60;;;;;;5071942;28;20121;-82
2022/07/10 10:58:32;;;;;;;1999.90;999.90;;;21.10;44.70;;;;;;5068329;28;20044;-81
2022/07/10 11:01:24;;;;;;;1999.90;999.90;;;22.00;44.80;;;;;;5070807;28;20039;-81
2022/07/10 11:04:04;;;;;;;1336.07;617.87;;;22.60;43.30;;;;;;5074409;28;20032;-82
2022/07/10 11:06:44;;;;;;;1892.72;856.67;;;22.70;39.40;;;;;;5071741;28;20241;-82
2022/07/10 11:09:30;;;;;;;1999.90;999.90;;;23.30;39.20;;;;;;5080559;28;20040;-81
2022/07/10 11:12:09;;;;;;;1999.90;999.90;;;23.40;37.80;;;;;;5078622;28;20032;-81
2022/07/10 11:14:47;;;;;;;1618.53;753.38;;;24.60;38.70;;;;;;5092510;28;20518;-81
2022/07/10 11:17:13;;;;;;;1999.90;999.90;;;25.20;38.00;;;;;;5095572;28;20020;-82
2022/07/10 11:19:39;;;;;;;1999.90;904.72;;;23.70;35.80;;;;;;5072150;28;20039;-82
2022/07/10 11:22:27;;;;;;;1999.90;999.90;;;21.80;37.80;;;;;;5097566;28;20031;-81
2022/07/10 11:25:34;;;;;;;1807.57;752.10;;;22.40;39.80;;;;;;5099771;28;20023;-81
2022/07/10 11:28:10;;;;;;;1999.90;999.90;;;23.60;37.40;;;;;;5090522;28;20040;-80
2022/07/10 11:30:52;;;;;;;1955.53;922.88;;;24.50;37.20;;;;;;5093211;28;20036;-82
2022/07/10 11:33:20;;;;;;;1999.90;999.90;;;22.80;36.00;;;;;;5093229;28;20024;-81
2022/07/10 11:35:51;;;;;;;1999.90;999.90;;;22.10;40.60;;;;;;5074287;28;20034;-82
2022/07/10 11:38:26;;;;;;;1999.90;999.90;;;22.30;41.10;;;;;;5104681;28;20116;-82
2022/07/10 11:40:55;;;;;;;1999.90;999.90;;;24.10;40.20;;;;;;5095283;28;20065;-82
2022/07/10 11:43:23;;;;;;;1999.90;999.90;;;25.00;35.50;;;;;;5079920;28;20048;-81
2022/07/10 11:45:50;;;;;;;1618.90;789.35;;;25.90;36.20;;;;;;5076980;28;20039;-82
2022/07/10 11:48:21;;;;;;;1999.90;999.90;;;25.00;31.60;;;;;;5077832;28;20096;-82
2022/07/10 11:50:47;;;;;;;1999.90;999.90;;;24.20;34.40;;;;;;5098958;28;20097;-81
2022/07/10 11:53:13;;;;;;;1999.90;999.90;;;24.90;34.20;;;;;;5095441;28;20103;-81
2022/07/10 11:55:40;;;;;;;1999.90;999.90;;;26.00;32.70;;;;;;5096548;28;20123;-81
2022/07/10 11:58:16;;;;;;;1955.85;695.17;;;26.30;31.30;;;;;;5074896;28;20517;-83
2022/07/10 12:00:42;;;;;;;1999.90;999.90;;;25.70;29.90;;;;;;5073466;28;20101;-82
2022/07/10 12:03:21;;;;;;;1999.90;999.90;;;25.90;32.70;;;;;;5089922;28;20115;-82
2022/07/10 12:05:51;;;;;;;1999.90;999.90;;;26.10;32.80;;;;;;5083630;28;20745;-82
2022/07/10 12:08:17;;;;;;;1999.90;999.90;;;25.60;31.90;;;;;;5083346;28;20027;-82